sensor_id;sensor_type;location;lat;lon;timestamp;temperature;humidity
47482;DHT22;33219;47.410;9.730;2023-04-01T00:00:53;8.20;99.90
47482;DHT22;33219;47.410;9.730;2023-04-01T00:03:23;8.20;99.90
47482;DHT22;33219;47.410;9.730;2023-04-01T00:05:52;8.20;99.90
47482;DHT22;33219;47.410;9.730;2023-04-01T00:08:20;8.20;99.90
47482;DHT22;33219;47.410;9.730;2023-04-01T00:10:47;8.20;99.90
47482;DHT22;33219;47.410;9.730;2023-04-01T00:13:15;8.30;99.90
47482;DHT22;33219;47.410;9.730;2023-04-01T00:15:43;8.30;99.90
47482;DHT22;33219;47.410;9.730;2023-04-01T00:18:11;8.30;99.90
47482;DHT22;33219;47.410;9.730;2023-04-01T00:20:45;8.40;99.90
47482;DHT22;33219;47.410;9.730;2023-04-01T00:23:13;8.40;99.90
47482;DHT22;33219;47.410;9.730;2023-04-01T00:25:41;8.50;99.90
47482;DHT22;33219;47.410;9.730;2023-04-01T00:28:09;8.50;99.90
47482;DHT22;33219;47.410;9.730;2023-04-01T00:30:37;8.50;99.90
47482;DHT22;33219;47.410;9.730;2023-04-01T00:33:05;8.50;99.90
47482;DHT22;33219;47.410;9.730;2023-04-01T00:35:32;8.50;99.90
47482;DHT22;33219;47.410;9.730;2023-04-01T00:38:01;8.60;99.90
47482;DHT22;33219;47.410;9.730;2023-04-01T00:40:32;8.70;99.90
47482;DHT22;33219;47.410;9.730;2023-04-01T00:43:00;8.80;99.90
47482;DHT22;33219;47.410;9.730;2023-04-01T00:45:34;8.80;99.90
47482;DHT22;33219;47.410;9.730;2023-04-01T00:48:07;8.70;99.90
47482;DHT22;33219;47.410;9.730;2023-04-01T00:50:36;8.70;99.90
47482;DHT22;33219;47.410;9.730;2023-04-01T00:53:05;8.60;99.90
47482;DHT22;33219;47.410;9.730;2023-04-01T00:55:36;8.60;99.90
47482;DHT22;33219;47.410;9.730;2023-04-01T00:58:07;8.60;99.90
47482;DHT22;33219;47.410;9.730;2023-04-01T01:00:36;8.60;99.90
47482;DHT22;33219;47.410;9.730;2023-04-01T01:03:05;8.60;99.90
47482;DHT22;33219;47.410;9.730;2023-04-01T01:05:42;8.70;99.90
47482;DHT22;33219;47.410;9.730;2023-04-01T01:08:22;8.80;99.90
47482;DHT22;33219;47.410;9.730;2023-04-01T01:10:44;8.90;99.90
47482;DHT22;33219;47.410;9.730;2023-04-01T01:13:36;8.90;99.90
47482;DHT22;33219;47.410;9.730;2023-04-01T01:16:16;8.90;99.90
47482;DHT22;33219;47.410;9.730;2023-04-01T01:18:57;8.90;99.90
47482;DHT22;33219;47.410;9.730;2023-04-01T01:26:47;9.00;99.90
47482;DHT22;33219;47.410;9.730;2023-04-01T01:29:42;9.00;99.90
47482;DHT22;33219;47.410;9.730;2023-04-01T01:35:32;9.10;99.90
47482;DHT22;33219;47.410;9.730;2023-04-01T01:38:06;9.20;99.90
47482;DHT22;33219;47.410;9.730;2023-04-01T01:40:34;9.10;99.90
47482;DHT22;33219;47.410;9.730;2023-04-01T01:43:09;9.10;99.90
47482;DHT22;33219;47.410;9.730;2023-04-01T01:45:40;9.20;99.90
47482;DHT22;33219;47.410;9.730;2023-04-01T01:48:09;9.20;99.90
47482;DHT22;33219;47.410;9.730;2023-04-01T01:50:39;9.20;99.90
47482;DHT22;33219;47.410;9.730;2023-04-01T01:53:10;9.20;99.90
47482;DHT22;33219;47.410;9.730;2023-04-01T01:55:40;9.20;99.90
47482;DHT22;33219;47.410;9.730;2023-04-01T01:58:32;9.10;99.90
47482;DHT22;33219;47.410;9.730;2023-04-01T02:01:01;9.10;99.90
47482;DHT22;33219;47.410;9.730;2023-04-01T02:03:31;9.10;99.90
47482;DHT22;33219;47.410;9.730;2023-04-01T02:06:02;9.00;99.90
47482;DHT22;33219;47.410;9.730;2023-04-01T02:11:04;8.90;99.90
47482;DHT22;33219;47.410;9.730;2023-04-01T02:13:43;8.90;99.90
47482;DHT22;33219;47.410;9.730;2023-04-01T02:16:18;8.90;99.90
47482;DHT22;33219;47.410;9.730;2023-04-01T02:18:49;8.80;99.90
47482;DHT22;33219;47.410;9.730;2023-04-01T02:21:19;8.80;99.90
47482;DHT22;33219;47.410;9.730;2023-04-01T02:23:49;8.70;99.90
47482;DHT22;33219;47.410;9.730;2023-04-01T02:26:17;8.70;99.90
47482;DHT22;33219;47.410;9.730;2023-04-01T02:28:47;8.60;99.90
47482;DHT22;33219;47.410;9.730;2023-04-01T02:31:16;8.60;99.90
47482;DHT22;33219;47.410;9.730;2023-04-01T02:33:43;8.60;99.90
47482;DHT22;33219;47.410;9.730;2023-04-01T02:36:15;8.60;99.90
47482;DHT22;33219;47.410;9.730;2023-04-01T02:38:45;8.50;99.90
47482;DHT22;33219;47.410;9.730;2023-04-01T02:41:14;8.50;99.90
47482;DHT22;33219;47.410;9.730;2023-04-01T02:43:41;8.40;99.90
47482;DHT22;33219;47.410;9.730;2023-04-01T02:46:09;8.40;99.90
47482;DHT22;33219;47.410;9.730;2023-04-01T02:48:37;8.40;99.90
47482;DHT22;33219;47.410;9.730;2023-04-01T02:51:04;8.40;99.90
47482;DHT22;33219;47.410;9.730;2023-04-01T02:53:32;8.50;99.90
47482;DHT22;33219;47.410;9.730;2023-04-01T02:56:00;8.60;99.90
47482;DHT22;33219;47.410;9.730;2023-04-01T02:58:27;8.70;99.90
47482;DHT22;33219;47.410;9.730;2023-04-01T03:00:55;8.70;99.90
47482;DHT22;33219;47.410;9.730;2023-04-01T03:03:22;8.80;99.90
47482;DHT22;33219;47.410;9.730;2023-04-01T03:05:50;8.80;99.90
47482;DHT22;33219;47.410;9.730;2023-04-01T03:08:18;8.80;99.90
47482;DHT22;33219;47.410;9.730;2023-04-01T03:10:45;8.90;99.90
47482;DHT22;33219;47.410;9.730;2023-04-01T03:13:13;8.90;99.90
47482;DHT22;33219;47.410;9.730;2023-04-01T03:15:41;8.90;99.90
47482;DHT22;33219;47.410;9.730;2023-04-01T03:18:08;8.80;99.90
47482;DHT22;33219;47.410;9.730;2023-04-01T03:20:36;8.80;99.90
47482;DHT22;33219;47.410;9.730;2023-04-01T03:23:04;8.90;99.90
47482;DHT22;33219;47.410;9.730;2023-04-01T03:25:31;8.90;99.90
47482;DHT22;33219;47.410;9.730;2023-04-01T03:27:59;8.90;99.90
47482;DHT22;33219;47.410;9.730;2023-04-01T03:30:27;8.90;99.90
47482;DHT22;33219;47.410;9.730;2023-04-01T03:32:57;8.90;99.90
47482;DHT22;33219;47.410;9.730;2023-04-01T03:35:26;8.90;99.90
47482;DHT22;33219;47.410;9.730;2023-04-01T03:37:54;8.80;99.90
47482;DHT22;33219;47.410;9.730;2023-04-01T03:40:22;8.70;99.90
47482;DHT22;33219;47.410;9.730;2023-04-01T03:42:50;8.70;99.90
47482;DHT22;33219;47.410;9.730;2023-04-01T03:45:18;8.70;99.90
47482;DHT22;33219;47.410;9.730;2023-04-01T03:47:46;8.60;99.90
47482;DHT22;33219;47.410;9.730;2023-04-01T03:50:13;8.60;99.90
47482;DHT22;33219;47.410;9.730;2023-04-01T03:52:41;8.60;99.90
47482;DHT22;33219;47.410;9.730;2023-04-01T03:55:09;8.60;99.90
47482;DHT22;33219;47.410;9.730;2023-04-01T03:57:37;8.60;99.90
47482;DHT22;33219;47.410;9.730;2023-04-01T04:00:05;8.60;99.90
47482;DHT22;33219;47.410;9.730;2023-04-01T04:02:32;8.70;99.90
47482;DHT22;33219;47.410;9.730;2023-04-01T04:05:00;8.70;99.90
47482;DHT22;33219;47.410;9.730;2023-04-01T04:07:28;8.60;99.90
47482;DHT22;33219;47.410;9.730;2023-04-01T04:09:55;8.60;99.90
47482;DHT22;33219;47.410;9.730;2023-04-01T04:12:23;8.60;99.90
47482;DHT22;33219;47.410;9.730;2023-04-01T04:14:51;8.50;99.90
47482;DHT22;33219;47.410;9.730;2023-04-01T04:17:18;8.50;99.90
47482;DHT22;33219;47.410;9.730;2023-04-01T04:19:46;8.50;99.90
47482;DHT22;33219;47.410;9.730;2023-04-01T04:22:13;8.40;99.90
47482;DHT22;33219;47.410;9.730;2023-04-01T04:24:41;8.40;99.90
47482;DHT22;33219;47.410;9.730;2023-04-01T04:27:09;8.40;99.90
47482;DHT22;33219;47.410;9.730;2023-04-01T04:29:36;8.30;99.90
47482;DHT22;33219;47.410;9.730;2023-04-01T04:32:04;8.30;99.90
47482;DHT22;33219;47.410;9.730;2023-04-01T04:34:32;8.30;99.90
47482;DHT22;33219;47.410;9.730;2023-04-01T04:37:00;8.20;99.90
47482;DHT22;33219;47.410;9.730;2023-04-01T04:39:27;8.20;99.90
47482;DHT22;33219;47.410;9.730;2023-04-01T04:41:55;8.20;99.90
47482;DHT22;33219;47.410;9.730;2023-04-01T04:44:22;8.20;99.90
47482;DHT22;33219;47.410;9.730;2023-04-01T04:46:50;8.20;99.90
47482;DHT22;33219;47.410;9.730;2023-04-01T04:49:18;8.20;99.90
47482;DHT22;33219;47.410;9.730;2023-04-01T04:51:45;8.20;99.90
47482;DHT22;33219;47.410;9.730;2023-04-01T04:54:13;8.10;99.90
47482;DHT22;33219;47.410;9.730;2023-04-01T04:56:42;8.10;99.90
47482;DHT22;33219;47.410;9.730;2023-04-01T04:59:10;8.00;99.90
47482;DHT22;33219;47.410;9.730;2023-04-01T05:01:39;8.00;99.90
47482;DHT22;33219;47.410;9.730;2023-04-01T05:04:06;7.90;99.90
47482;DHT22;33219;47.410;9.730;2023-04-01T05:06:34;7.90;99.90
47482;DHT22;33219;47.410;9.730;2023-04-01T05:09:02;7.80;99.90
47482;DHT22;33219;47.410;9.730;2023-04-01T05:11:29;7.80;99.90
47482;DHT22;33219;47.410;9.730;2023-04-01T05:13:57;7.80;99.90
47482;DHT22;33219;47.410;9.730;2023-04-01T05:16:24;7.70;99.90
47482;DHT22;33219;47.410;9.730;2023-04-01T05:18:52;7.70;99.90
47482;DHT22;33219;47.410;9.730;2023-04-01T05:21:20;7.70;99.90
47482;DHT22;33219;47.410;9.730;2023-04-01T05:23:47;7.70;99.90
47482;DHT22;33219;47.410;9.730;2023-04-01T05:26:15;7.70;99.90
47482;DHT22;33219;47.410;9.730;2023-04-01T05:28:42;7.80;99.90
47482;DHT22;33219;47.410;9.730;2023-04-01T05:31:11;7.80;99.90
47482;DHT22;33219;47.410;9.730;2023-04-01T05:33:38;7.90;99.90
47482;DHT22;33219;47.410;9.730;2023-04-01T05:36:11;7.80;99.90
47482;DHT22;33219;47.410;9.730;2023-04-01T05:38:39;7.80;99.90
47482;DHT22;33219;47.410;9.730;2023-04-01T05:41:08;7.70;99.90
47482;DHT22;33219;47.410;9.730;2023-04-01T05:43:37;7.70;99.90
47482;DHT22;33219;47.410;9.730;2023-04-01T05:46:05;7.70;99.90
47482;DHT22;33219;47.410;9.730;2023-04-01T05:48:34;7.70;99.90
47482;DHT22;33219;47.410;9.730;2023-04-01T05:51:02;7.70;99.90
47482;DHT22;33219;47.410;9.730;2023-04-01T05:53:30;7.70;99.90
47482;DHT22;33219;47.410;9.730;2023-04-01T05:56:01;7.70;99.90
47482;DHT22;33219;47.410;9.730;2023-04-01T05:58:26;7.70;99.90
47482;DHT22;33219;47.410;9.730;2023-04-01T06:01:02;7.80;99.90
47482;DHT22;33219;47.410;9.730;2023-04-01T06:03:32;7.90;99.90
47482;DHT22;33219;47.410;9.730;2023-04-01T06:05:59;8.10;99.90
47482;DHT22;33219;47.410;9.730;2023-04-01T06:08:28;8.20;99.90
47482;DHT22;33219;47.410;9.730;2023-04-01T06:19:20;8.50;99.90
47482;DHT22;33219;47.410;9.730;2023-04-01T06:24:57;8.40;99.90
47482;DHT22;33219;47.410;9.730;2023-04-01T06:27:34;8.40;99.90
47482;DHT22;33219;47.410;9.730;2023-04-01T06:30:02;8.50;99.90
47482;DHT22;33219;47.410;9.730;2023-04-01T06:32:46;8.50;99.90
47482;DHT22;33219;47.410;9.730;2023-04-01T06:35:34;8.50;99.90
47482;DHT22;33219;47.410;9.730;2023-04-01T06:52:19;8.80;99.90
47482;DHT22;33219;47.410;9.730;2023-04-01T06:54:55;8.90;99.90
47482;DHT22;33219;47.410;9.730;2023-04-01T06:57:34;8.90;99.90
47482;DHT22;33219;47.410;9.730;2023-04-01T07:00:04;8.80;99.90
47482;DHT22;33219;47.410;9.730;2023-04-01T07:02:37;9.40;99.90
47482;DHT22;33219;47.410;9.730;2023-04-01T07:05:04;9.80;99.90
47482;DHT22;33219;47.410;9.730;2023-04-01T07:07:52;9.90;99.90
47482;DHT22;33219;47.410;9.730;2023-04-01T07:10:43;10.20;99.90
47482;DHT22;33219;47.410;9.730;2023-04-01T07:13:34;11.50;99.90
47482;DHT22;33219;47.410;9.730;2023-04-01T07:15:55;12.90;98.70
47482;DHT22;33219;47.410;9.730;2023-04-01T07:18:22;14.70;95.20
47482;DHT22;33219;47.410;9.730;2023-04-01T07:20:52;14.80;92.20
47482;DHT22;33219;47.410;9.730;2023-04-01T07:23:26;15.10;92.50
47482;DHT22;33219;47.410;9.730;2023-04-01T07:26:31;15.10;90.80
47482;DHT22;33219;47.410;9.730;2023-04-01T07:28:33;15.50;90.70
47482;DHT22;33219;47.410;9.730;2023-04-01T07:44:59;12.70;92.90
47482;DHT22;33219;47.410;9.730;2023-04-01T07:55:40;12.00;95.20
47482;DHT22;33219;47.410;9.730;2023-04-01T08:01:28;11.60;97.20
47482;DHT22;33219;47.410;9.730;2023-04-01T08:06:51;11.20;99.30
47482;DHT22;33219;47.410;9.730;2023-04-01T08:15:34;10.90;99.90
47482;DHT22;33219;47.410;9.730;2023-04-01T08:17:28;10.80;99.40
47482;DHT22;33219;47.410;9.730;2023-04-01T08:20:05;10.80;99.20
47482;DHT22;33219;47.410;9.730;2023-04-01T08:22:38;10.70;99.90
47482;DHT22;33219;47.410;9.730;2023-04-01T08:25:02;10.60;99.90
47482;DHT22;33219;47.410;9.730;2023-04-01T08:27:36;10.60;99.90
47482;DHT22;33219;47.410;9.730;2023-04-01T08:30:06;10.50;99.90
47482;DHT22;33219;47.410;9.730;2023-04-01T08:32:39;10.50;99.90
47482;DHT22;33219;47.410;9.730;2023-04-01T08:35:14;10.60;99.90
47482;DHT22;33219;47.410;9.730;2023-04-01T08:37:40;10.50;99.90
47482;DHT22;33219;47.410;9.730;2023-04-01T08:53:50;10.30;99.90
47482;DHT22;33219;47.410;9.730;2023-04-01T08:56:30;10.50;99.90
47482;DHT22;33219;47.410;9.730;2023-04-01T08:59:16;10.60;99.90
47482;DHT22;33219;47.410;9.730;2023-04-01T09:01:46;10.70;99.90
47482;DHT22;33219;47.410;9.730;2023-04-01T09:16:08;10.80;99.90
47482;DHT22;33219;47.410;9.730;2023-04-01T09:21:43;10.80;99.90
47482;DHT22;33219;47.410;9.730;2023-04-01T09:26:57;10.70;99.90
47482;DHT22;33219;47.410;9.730;2023-04-01T09:32:13;10.80;99.90
47482;DHT22;33219;47.410;9.730;2023-04-01T09:43:16;10.90;99.90
47482;DHT22;33219;47.410;9.730;2023-04-01T09:48:38;10.90;99.90
47482;DHT22;33219;47.410;9.730;2023-04-01T09:51:26;10.90;99.90
47482;DHT22;33219;47.410;9.730;2023-04-01T09:54:05;10.80;99.90
47482;DHT22;33219;47.410;9.730;2023-04-01T10:02:14;10.70;99.90
47482;DHT22;33219;47.410;9.730;2023-04-01T10:07:27;10.70;99.90
47482;DHT22;33219;47.410;9.730;2023-04-01T10:21:22;10.40;99.90
47482;DHT22;33219;47.410;9.730;2023-04-01T10:23:57;10.40;99.90
47482;DHT22;33219;47.410;9.730;2023-04-01T10:38:26;10.40;99.90
47482;DHT22;33219;47.410;9.730;2023-04-01T10:40:57;10.40;99.90
47482;DHT22;33219;47.410;9.730;2023-04-01T11:05:26;10.10;99.90
47482;DHT22;33219;47.410;9.730;2023-04-01T11:16:40;10.20;99.90
47482;DHT22;33219;47.410;9.730;2023-04-01T11:24:31;10.40;99.90
47482;DHT22;33219;47.410;9.730;2023-04-01T11:27:04;10.40;99.90
47482;DHT22;33219;47.410;9.730;2023-04-01T11:37:50;10.60;99.90
47482;DHT22;33219;47.410;9.730;2023-04-01T11:42:51;10.70;99.90
47482;DHT22;33219;47.410;9.730;2023-04-01T11:48:21;10.90;99.90
47482;DHT22;33219;47.410;9.730;2023-04-01T11:50:44;11.00;99.90
47482;DHT22;33219;47.410;9.730;2023-04-01T11:56:01;11.10;99.90
47482;DHT22;33219;47.410;9.730;2023-04-01T12:01:03;11.20;99.90
47482;DHT22;33219;47.410;9.730;2023-04-01T12:06:23;11.40;99.80
47482;DHT22;33219;47.410;9.730;2023-04-01T12:12:03;11.50;99.90
47482;DHT22;33219;47.410;9.730;2023-04-01T12:19:57;11.50;99.90
47482;DHT22;33219;47.410;9.730;2023-04-01T12:22:58;11.50;99.90
47482;DHT22;33219;47.410;9.730;2023-04-01T12:39:17;12.00;99.30
47482;DHT22;33219;47.410;9.730;2023-04-01T12:44:33;12.00;99.20
47482;DHT22;33219;47.410;9.730;2023-04-01T12:50:16;11.90;99.10
47482;DHT22;33219;47.410;9.730;2023-04-01T12:55:29;11.80;99.70
47482;DHT22;33219;47.410;9.730;2023-04-01T13:00:43;12.00;99.20
47482;DHT22;33219;47.410;9.730;2023-04-01T13:03:30;12.10;99.00
47482;DHT22;33219;47.410;9.730;2023-04-01T13:11:47;11.90;98.40
47482;DHT22;33219;47.410;9.730;2023-04-01T13:14:18;11.90;98.00
47482;DHT22;33219;47.410;9.730;2023-04-01T13:17:03;11.70;98.20
47482;DHT22;33219;47.410;9.730;2023-04-01T13:22:28;11.50;98.80
47482;DHT22;33219;47.410;9.730;2023-04-01T13:25:23;11.50;99.30
47482;DHT22;33219;47.410;9.730;2023-04-01T13:27:48;11.50;99.50
47482;DHT22;33219;47.410;9.730;2023-04-01T13:30:30;11.60;99.50
47482;DHT22;33219;47.410;9.730;2023-04-01T13:33:25;11.60;99.80
47482;DHT22;33219;47.410;9.730;2023-04-01T13:36:18;11.80;99.90
47482;DHT22;33219;47.410;9.730;2023-04-01T13:38:56;11.70;99.60
47482;DHT22;33219;47.410;9.730;2023-04-01T13:44:19;11.80;98.50
47482;DHT22;33219;47.410;9.730;2023-04-01T13:52:24;11.50;98.10
47482;DHT22;33219;47.410;9.730;2023-04-01T14:08:55;11.20;99.90
47482;DHT22;33219;47.410;9.730;2023-04-01T14:11:26;11.40;99.90
47482;DHT22;33219;47.410;9.730;2023-04-01T14:14:01;11.50;99.40
47482;DHT22;33219;47.410;9.730;2023-04-01T14:19:11;11.60;99.50
47482;DHT22;33219;47.410;9.730;2023-04-01T14:21:43;11.70;99.50
47482;DHT22;33219;47.410;9.730;2023-04-01T14:24:23;11.70;99.40
47482;DHT22;33219;47.410;9.730;2023-04-01T14:38:30;12.00;98.60
47482;DHT22;33219;47.410;9.730;2023-04-01T14:43:55;12.10;98.30
47482;DHT22;33219;47.410;9.730;2023-04-01T14:46:34;11.90;98.30
47482;DHT22;33219;47.410;9.730;2023-04-01T14:49:17;12.00;98.40
47482;DHT22;33219;47.410;9.730;2023-04-01T14:51:43;12.10;98.40
47482;DHT22;33219;47.410;9.730;2023-04-01T14:54:32;12.00;98.30
47482;DHT22;33219;47.410;9.730;2023-04-01T14:57:23;12.00;98.30
47482;DHT22;33219;47.410;9.730;2023-04-01T15:02:57;11.70;98.60
47482;DHT22;33219;47.410;9.730;2023-04-01T15:05:47;11.70;98.80
47482;DHT22;33219;47.410;9.730;2023-04-01T15:08:26;11.70;98.50
47482;DHT22;33219;47.410;9.730;2023-04-01T15:10:53;11.70;97.60
47482;DHT22;33219;47.410;9.730;2023-04-01T15:16:20;11.80;97.20
47482;DHT22;33219;47.410;9.730;2023-04-01T15:19:05;12.00;97.50
47482;DHT22;33219;47.410;9.730;2023-04-01T15:21:36;12.00;96.90
47482;DHT22;33219;47.410;9.730;2023-04-01T15:29:35;12.10;96.70
47482;DHT22;33219;47.410;9.730;2023-04-01T15:32:21;12.10;96.70
47482;DHT22;33219;47.410;9.730;2023-04-01T15:34:53;12.00;97.10
47482;DHT22;33219;47.410;9.730;2023-04-01T15:43:04;11.70;99.70
47482;DHT22;33219;47.410;9.730;2023-04-01T15:48:25;11.50;99.90
47482;DHT22;33219;47.410;9.730;2023-04-01T15:51:21;11.30;99.90
47482;DHT22;33219;47.410;9.730;2023-04-01T15:56:43;11.00;99.90
47482;DHT22;33219;47.410;9.730;2023-04-01T15:59:41;10.80;99.90
47482;DHT22;33219;47.410;9.730;2023-04-01T16:02:08;10.60;99.90
47482;DHT22;33219;47.410;9.730;2023-04-01T16:10:09;9.90;99.90
47482;DHT22;33219;47.410;9.730;2023-04-01T16:21:51;9.60;99.90
47482;DHT22;33219;47.410;9.730;2023-04-01T16:27:24;9.60;99.90
47482;DHT22;33219;47.410;9.730;2023-04-01T16:38:39;9.60;99.90
47482;DHT22;33219;47.410;9.730;2023-04-01T16:41:23;9.60;99.90
47482;DHT22;33219;47.410;9.730;2023-04-01T16:43:51;9.50;99.90
47482;DHT22;33219;47.410;9.730;2023-04-01T16:46:30;9.50;99.90
47482;DHT22;33219;47.410;9.730;2023-04-01T16:59:46;9.20;99.90
47482;DHT22;33219;47.410;9.730;2023-04-01T17:02:16;9.20;99.90
47482;DHT22;33219;47.410;9.730;2023-04-01T17:04:47;9.20;99.90
47482;DHT22;33219;47.410;9.730;2023-04-01T17:07:25;9.10;99.90
47482;DHT22;33219;47.410;9.730;2023-04-01T17:10:22;9.10;99.90
47482;DHT22;33219;47.410;9.730;2023-04-01T17:32:36;8.90;99.90
47482;DHT22;33219;47.410;9.730;2023-04-01T17:35:16;8.90;99.90
47482;DHT22;33219;47.410;9.730;2023-04-01T17:43:26;8.70;99.90
47482;DHT22;33219;47.410;9.730;2023-04-01T17:46:08;8.60;99.90
47482;DHT22;33219;47.410;9.730;2023-04-01T17:48:46;8.60;99.90
47482;DHT22;33219;47.410;9.730;2023-04-01T17:51:29;8.60;99.90
47482;DHT22;33219;47.410;9.730;2023-04-01T17:57:09;8.50;99.90
47482;DHT22;33219;47.410;9.730;2023-04-01T17:59:38;8.40;99.90
47482;DHT22;33219;47.410;9.730;2023-04-01T18:02:38;8.40;99.90
47482;DHT22;33219;47.410;9.730;2023-04-01T18:13:45;8.20;99.90
47482;DHT22;33219;47.410;9.730;2023-04-01T18:16:36;8.20;99.90
47482;DHT22;33219;47.410;9.730;2023-04-01T18:19:18;8.20;99.90
47482;DHT22;33219;47.410;9.730;2023-04-01T18:21:45;8.20;99.90
47482;DHT22;33219;47.410;9.730;2023-04-01T18:24:40;8.20;99.90
47482;DHT22;33219;47.410;9.730;2023-04-01T18:30:01;8.20;99.90
47482;DHT22;33219;47.410;9.730;2023-04-01T18:35:47;8.20;99.90
47482;DHT22;33219;47.410;9.730;2023-04-01T18:38:16;8.20;99.90
47482;DHT22;33219;47.410;9.730;2023-04-01T18:43:39;8.20;99.90
47482;DHT22;33219;47.410;9.730;2023-04-01T18:46:17;8.20;99.90
47482;DHT22;33219;47.410;9.730;2023-04-01T18:48:44;8.20;99.90
47482;DHT22;33219;47.410;9.730;2023-04-01T18:51:20;8.10;99.90
47482;DHT22;33219;47.410;9.730;2023-04-01T18:54:02;8.00;99.90
47482;DHT22;33219;47.410;9.730;2023-04-01T18:56:38;8.00;99.90
47482;DHT22;33219;47.410;9.730;2023-04-01T18:59:26;7.90;99.90
47482;DHT22;33219;47.410;9.730;2023-04-01T19:02:04;7.80;99.90
47482;DHT22;33219;47.410;9.730;2023-04-01T19:04:56;7.80;99.90
47482;DHT22;33219;47.410;9.730;2023-04-01T19:09:52;7.70;99.90
47482;DHT22;33219;47.410;9.730;2023-04-01T19:15:31;7.70;99.90
47482;DHT22;33219;47.410;9.730;2023-04-01T19:18:01;7.70;99.90
47482;DHT22;33219;47.410;9.730;2023-04-01T19:23:17;7.70;99.90
47482;DHT22;33219;47.410;9.730;2023-04-01T19:25:55;7.70;99.90
47482;DHT22;33219;47.410;9.730;2023-04-01T19:28:47;7.70;99.90
47482;DHT22;33219;47.410;9.730;2023-04-01T19:34:14;7.60;99.90
47482;DHT22;33219;47.410;9.730;2023-04-01T19:42:14;7.60;99.90
47482;DHT22;33219;47.410;9.730;2023-04-01T19:44:45;7.60;99.90
47482;DHT22;33219;47.410;9.730;2023-04-01T19:52:51;7.60;99.90
47482;DHT22;33219;47.410;9.730;2023-04-01T19:55:41;7.50;99.90
47482;DHT22;33219;47.410;9.730;2023-04-01T20:00:55;7.50;99.90
47482;DHT22;33219;47.410;9.730;2023-04-01T20:09:26;7.50;99.90
47482;DHT22;33219;47.410;9.730;2023-04-01T20:12:05;7.50;99.90
47482;DHT22;33219;47.410;9.730;2023-04-01T20:14:42;7.50;99.90
47482;DHT22;33219;47.410;9.730;2023-04-01T20:19:48;7.40;99.90
47482;DHT22;33219;47.410;9.730;2023-04-01T20:22:38;7.50;99.90
47482;DHT22;33219;47.410;9.730;2023-04-01T20:28:25;7.40;99.90
47482;DHT22;33219;47.410;9.730;2023-04-01T20:30:59;7.40;99.90
47482;DHT22;33219;47.410;9.730;2023-04-01T20:39:45;7.30;99.90
47482;DHT22;33219;47.410;9.730;2023-04-01T20:42:34;7.30;99.90
47482;DHT22;33219;47.410;9.730;2023-04-01T20:53:16;7.30;99.90
47482;DHT22;33219;47.410;9.730;2023-04-01T21:01:46;7.30;99.90
47482;DHT22;33219;47.410;9.730;2023-04-01T21:15:11;7.30;99.90
47482;DHT22;33219;47.410;9.730;2023-04-01T21:26:04;7.30;99.90
47482;DHT22;33219;47.410;9.730;2023-04-01T21:31:34;7.30;99.90
47482;DHT22;33219;47.410;9.730;2023-04-01T21:39:43;7.40;99.90
47482;DHT22;33219;47.410;9.730;2023-04-01T21:45:04;7.40;99.90
47482;DHT22;33219;47.410;9.730;2023-04-01T21:59:04;7.30;99.90
47482;DHT22;33219;47.410;9.730;2023-04-01T22:02:03;7.30;99.90
47482;DHT22;33219;47.410;9.730;2023-04-01T22:04:47;7.30;99.90
47482;DHT22;33219;47.410;9.730;2023-04-01T22:07:28;7.30;99.90
47482;DHT22;33219;47.410;9.730;2023-04-01T22:18:39;7.20;99.90
47482;DHT22;33219;47.410;9.730;2023-04-01T22:20:33;7.10;99.90
47482;DHT22;33219;47.410;9.730;2023-04-01T22:29:27;7.10;99.90
47482;DHT22;33219;47.410;9.730;2023-04-01T22:32:03;7.10;99.90
47482;DHT22;33219;47.410;9.730;2023-04-01T22:34:46;7.10;99.90
47482;DHT22;33219;47.410;9.730;2023-04-01T22:40:05;7.00;99.90
47482;DHT22;33219;47.410;9.730;2023-04-01T22:45:35;7.10;99.90
47482;DHT22;33219;47.410;9.730;2023-04-01T22:48:02;7.00;99.90
47482;DHT22;33219;47.410;9.730;2023-04-01T22:50:40;7.00;99.90
47482;DHT22;33219;47.410;9.730;2023-04-01T22:55:58;7.10;99.90
47482;DHT22;33219;47.410;9.730;2023-04-01T22:58:32;7.00;99.90
47482;DHT22;33219;47.410;9.730;2023-04-01T23:01:03;7.00;99.90
47482;DHT22;33219;47.410;9.730;2023-04-01T23:03:36;7.00;99.90
47482;DHT22;33219;47.410;9.730;2023-04-01T23:06:05;7.00;99.90
47482;DHT22;33219;47.410;9.730;2023-04-01T23:11:39;7.00;99.90
47482;DHT22;33219;47.410;9.730;2023-04-01T23:22:21;7.00;99.90
47482;DHT22;33219;47.410;9.730;2023-04-01T23:24:50;7.00;99.90
47482;DHT22;33219;47.410;9.730;2023-04-01T23:27:23;7.10;99.90
47482;DHT22;33219;47.410;9.730;2023-04-01T23:29:50;7.00;99.90
47482;DHT22;33219;47.410;9.730;2023-04-01T23:32:22;7.00;99.90
47482;DHT22;33219;47.410;9.730;2023-04-01T23:34:53;7.00;99.90
47482;DHT22;33219;47.410;9.730;2023-04-01T23:37:21;7.00;99.90
47482;DHT22;33219;47.410;9.730;2023-04-01T23:39:56;7.00;99.90
47482;DHT22;33219;47.410;9.730;2023-04-01T23:42:26;7.00;99.90
47482;DHT22;33219;47.410;9.730;2023-04-01T23:45:04;7.00;99.90
47482;DHT22;33219;47.410;9.730;2023-04-01T23:47:36;7.00;99.90
47482;DHT22;33219;47.410;9.730;2023-04-01T23:52:51;7.10;99.90
47482;DHT22;33219;47.410;9.730;2023-04-01T23:55:31;7.10;99.90
